Time;durP1;ratioP1;P1;durP2;ratioP2;P2;SDS_P1;SDS_P2;PMS_P1;PMS_P2;Temp;Humidity;BMP_temperature;BMP_pressure;BME280_temperature;BME280_humidity;BME280_pressure;Samples;Min_cycle;Max_cycle;Signal;HPM_P1;HPM_P2
2023/10/12 00:02:21;;;;;;;8.40;3.77;;;20.50;99.90;;;;;;5019620;28;20420;-81
2023/10/12 00:04:53;;;;;;;7.03;3.57;;;20.50;99.90;;;;;;5036047;28;20548;-80
2023/10/12 00:07:33;;;;;;;9.63;3.50;;;20.40;99.90;;;;;;5056598;28;20390;-81
2023/10/12 00:12:37;;;;;;;8.47;3.40;;;20.40;99.90;;;;;;5038024;28;20888;-80
2023/10/12 00:15:16;;;;;;;12.13;3.97;;;20.40;99.90;;;;;;5037868;28;20383;-79
2023/10/12 00:17:42;;;;;;;11.37;3.73;;;20.30;99.90;;;;;;5049029;28;20434;-80
2023/10/12 00:20:08;;;;;;;9.70;3.77;;;20.20;99.90;;;;;;5040676;28;20379;-81
2023/10/12 00:22:36;;;;;;;9.30;3.40;;;20.10;99.90;;;;;;5041030;28;20176;-80
2023/10/12 00:25:04;;;;;;;7.90;3.63;;;20.10;99.90;;;;;;5057702;28;20882;-80
2023/10/12 00:27:29;;;;;;;17.07;4.47;;;20.10;99.90;;;;;;5039513;28;20427;-81
2023/10/12 00:29:55;;;;;;;7.43;4.10;;;20.00;99.90;;;;;;5057771;28;20403;-80
2023/10/12 00:32:21;;;;;;;6.93;4.03;;;20.00;99.90;;;;;;5022942;28;20173;-80
2023/10/12 00:34:47;;;;;;;12.43;4.50;;;20.00;99.90;;;;;;5039486;28;20177;-81
2023/10/12 00:37:14;;;;;;;8.37;3.57;;;19.90;99.90;;;;;;5039132;28;20182;-81
2023/10/12 00:39:57;;;;;;;8.70;4.57;;;19.90;99.90;;;;;;5039763;28;20386;-80
2023/10/12 00:42:24;;;;;;;10.53;4.10;;;19.90;99.90;;;;;;5025099;28;20423;-81
2023/10/12 00:44:53;;;;;;;12.60;3.93;;;20.00;99.90;;;;;;5039649;28;20445;-80
2023/10/12 00:47:29;;;;;;;12.23;5.00;;;19.90;99.90;;;;;;5039413;28;20892;-81
2023/10/12 00:49:56;;;;;;;10.63;4.67;;;19.90;99.90;;;;;;5024190;28;20387;-80
2023/10/12 00:52:26;;;;;;;9.73;3.43;;;19.80;99.90;;;;;;5057493;28;20416;-81
2023/10/12 00:54:56;;;;;;;6.60;2.90;;;19.90;99.90;;;;;;5057217;28;20407;-79
2023/10/12 00:57:23;;;;;;;8.57;3.53;;;19.80;99.90;;;;;;5023089;28;20415;-80
2023/10/12 00:59:52;;;;;;;15.40;4.47;;;19.80;99.90;;;;;;5057227;28;20404;-80
2023/10/12 01:02:23;;;;;;;10.40;3.77;;;19.70;99.90;;;;;;5023342;28;20911;-81
2023/10/12 01:04:48;;;;;;;8.27;4.67;;;19.70;99.90;;;;;;5023380;28;20998;-80
2023/10/12 01:07:25;;;;;;;11.20;4.80;;;19.80;99.90;;;;;;5038837;28;20506;-81
2023/10/12 01:10:02;;;;;;;5.50;3.53;;;19.80;99.90;;;;;;5040880;28;20173;-80
2023/10/12 01:12:30;;;;;;;13.90;4.20;;;19.70;99.90;;;;;;5040859;28;20433;-79
2023/10/12 01:14:56;;;;;;;10.80;5.00;;;19.70;99.90;;;;;;5022982;28;20897;-81
2023/10/12 01:17:28;;;;;;;9.83;3.60;;;19.70;99.90;;;;;;5037725;28;20499;-80
2023/10/12 01:19:54;;;;;;;7.73;3.37;;;19.70;99.90;;;;;;5022983;28;20231;-80
2023/10/12 01:22:27;;;;;;;14.07;3.80;;;19.70;99.90;;;;;;5038848;28;20444;-81
2023/10/12 01:27:22;;;;;;;12.50;4.20;;;19.60;99.90;;;;;;5019506;28;20433;-80
2023/10/12 01:29:48;;;;;;;6.03;3.33;;;19.60;99.90;;;;;;5019229;28;20421;-80
2023/10/12 01:34:52;;;;;;;13.03;3.77;;;19.50;99.90;;;;;;5055775;28;20387;-80
2023/10/12 01:37:27;;;;;;;6.90;4.07;;;19.40;99.90;;;;;;5024957;28;20438;-80
2023/10/12 01:45:06;;;;;;;13.73;3.63;;;19.30;99.90;;;;;;5056908;28;20753;-80
2023/10/12 01:47:37;;;;;;;9.27;3.87;;;19.30;99.90;;;;;;5039195;28;20451;-80
2023/10/12 01:50:05;;;;;;;13.17;4.17;;;19.30;99.90;;;;;;5056516;28;20416;-80
2023/10/12 01:52:32;;;;;;;10.03;4.20;;;19.30;99.90;;;;;;5038168;28;20738;-80
2023/10/12 01:54:58;;;;;;;6.50;3.40;;;19.20;99.90;;;;;;5022322;28;20462;-80
2023/10/12 01:57:32;;;;;;;8.00;3.63;;;19.20;99.90;;;;;;5047428;28;20932;-80
2023/10/12 01:59:58;;;;;;;6.73;4.07;;;19.20;99.90;;;;;;5020359;28;20756;-80
2023/10/12 02:02:24;;;;;;;6.60;3.40;;;19.20;99.90;;;;;;5035391;28;20436;-79
2023/10/12 02:04:51;;;;;;;9.53;4.10;;;19.20;99.90;;;;;;5002278;28;20460;-79
2023/10/12 02:07:17;;;;;;;9.60;4.20;;;19.20;99.90;;;;;;5002435;28;20189;-82
2023/10/12 02:09:44;;;;;;;7.30;4.20;;;19.10;99.90;;;;;;5019121;28;20395;-80
2023/10/12 02:12:13;;;;;;;5.67;3.93;;;19.10;99.90;;;;;;5035330;28;20271;-79
2023/10/12 02:14:41;;;;;;;12.17;3.47;;;19.10;99.90;;;;;;5018461;28;20487;-79
2023/10/12 02:17:10;;;;;;;17.17;4.37;;;19.00;99.90;;;;;;5019079;28;20394;-79
2023/10/12 02:19:42;;;;;;;8.93;3.00;;;;;;;;;;5018943;28;20412;-80
2023/10/12 02:22:24;;;;;;;4.67;3.47;;;;;;;;;;5019204;28;20390;-80
2023/10/12 02:25:17;;;;;;;8.67;4.13;;;;;;;;;;5036381;28;20456;-80
2023/10/12 02:27:54;;;;;;;6.53;3.83;;;;;;;;;;5005519;28;20790;-80
2023/10/12 02:30:21;;;;;;;12.40;5.57;;;;;;;;;;5034323;28;20382;-80
2023/10/12 02:32:51;;;;;;;9.50;4.20;;;;;;;;;;5034499;28;20392;-79
2023/10/12 02:35:19;;;;;;;13.57;3.80;;;;;;;;;;5034930;28;20384;-80
2023/10/12 02:37:46;;;;;;;8.57;3.80;;;;;;;;;;5034617;28;20530;-80
2023/10/12 02:40:12;;;;;;;4.30;3.63;;;;;;;;;;5035166;28;20406;-79
2023/10/12 02:42:38;;;;;;;7.57;4.70;;;;;;;;;;5034239;28;20434;-79
2023/10/12 02:45:10;;;;;;;7.20;4.33;;;;;;;;;;5001633;28;20421;-79
2023/10/12 02:47:40;;;;;;;7.60;4.67;;;;;;;;;;5048102;28;20401;-80
2023/10/12 02:52:34;;;;;;;8.30;5.50;;;;;;;;;;5055503;28;20452;-79
2023/10/12 02:55:08;;;;;;;9.67;4.93;;;;;;;;;;5055976;28;20433;-79
2023/10/12 02:57:37;;;;;;;8.70;4.43;;;;;;;;;;5037693;28;20389;-79
2023/10/12 03:00:13;;;;;;;10.53;5.50;;;;;;;;;;5055894;28;20400;-79
2023/10/12 03:02:41;;;;;;;8.00;5.00;;;;;;;;;;5037764;28;20875;-79
2023/10/12 03:05:07;;;;;;;8.93;4.97;;;;;;;;;;5055789;28;20448;-79
2023/10/12 03:07:36;;;;;;;13.70;5.90;;;;;;;;;;5021340;28;20787;-79
2023/10/12 03:10:06;;;;;;;7.67;5.10;;;;;;;;;;5021845;28;20416;-79
2023/10/12 03:12:35;;;;;;;12.73;4.97;;;;;;;;;;5054870;28;20382;-80
2023/10/12 03:15:11;;;;;;;9.17;6.50;;;;;;;;;;5037606;28;20888;-79
2023/10/12 03:17:41;;;;;;;9.73;5.83;;;;;;;;;;5055294;28;20479;-79
2023/10/12 03:20:23;;;;;;;7.00;4.37;;;;;;;;;;5037610;28;20429;-79
2023/10/12 03:22:52;;;;;;;11.47;5.10;;;;;;;;;;5037083;28;20390;-80
2023/10/12 03:25:19;;;;;;;10.80;4.90;;;;;;;;;;5055166;28;20398;-79
2023/10/12 03:27:51;;;;;;;10.17;5.63;;;;;;;;;;5055101;28;20491;-80
2023/10/12 03:30:34;;;;;;;9.97;5.13;;;;;;;;;;5055069;28;20404;-79
2023/10/12 03:33:03;;;;;;;9.23;5.70;;;;;;;;;;5055233;28;20736;-79
2023/10/12 03:35:34;;;;;;;11.50;6.83;;;;;;;;;;5036804;28;20486;-79
2023/10/12 03:38:12;;;;;;;11.97;5.93;;;;;;;;;;5037182;28;20833;-79
2023/10/12 03:43:20;;;;;;;8.13;5.53;;;;;;;;;;5044367;28;20841;-79
2023/10/12 03:51:24;;;;;;;10.53;6.13;;;;;;;;;;5054487;28;20362;-80
2023/10/12 03:54:11;;;;;;;12.50;6.20;;;;;;;;;;5036866;28;20390;-80
2023/10/12 03:56:39;;;;;;;11.10;6.60;;;;;;;;;;5054259;28;20405;-79
2023/10/12 03:59:08;;;;;;;11.57;6.30;;;;;;;;;;5054472;28;20420;-80
2023/10/12 04:01:39;;;;;;;10.00;5.77;;;;;;;;;;5054237;28;20375;-80
2023/10/12 04:04:10;;;;;;;10.80;7.17;;;;;;;;;;5037106;28;20430;-80
2023/10/12 04:07:37;;;;;;;11.13;6.60;;;;;;;;;;5053880;28;20387;-80
2023/10/12 04:09:31;;;;;;;12.33;6.50;;;;;;;;;;5040103;28;20509;-80
2023/10/12 04:12:11;;;;;;;11.13;6.10;;;;;;;;;;5053544;28;20386;-79
2023/10/12 04:14:53;;;;;;;12.20;6.83;;;;;;;;;;5054270;28;20366;-80
2023/10/12 04:23:15;;;;;;;10.00;6.50;;;;;;;;;;5034366;28;20383;-80
2023/10/12 04:28:35;;;;;;;8.60;5.77;;;;;;;;;;5034259;28;20436;-79
2023/10/12 04:33:24;;;;;;;7.87;6.20;;;;;;;;;;5034573;28;20922;-79
2023/10/12 04:36:09;;;;;;;12.03;6.40;;;;;;;;;;5017315;28;20463;-80
2023/10/12 04:44:03;;;;;;;8.47;6.07;;;;;;;;;;5053925;28;20483;-79
2023/10/12 04:46:38;;;;;;;9.57;5.80;;;16.50;99.90;;;;;;5036232;28;20404;-80
2023/10/12 04:51:41;;;;;;;12.80;6.77;;;16.40;99.90;;;;;;5038173;28;20871;-79
2023/10/12 04:59:42;;;;;;;15.50;8.00;;;16.50;99.90;;;;;;5037036;28;20384;-80
2023/10/12 05:04:49;;;;;;;13.20;6.30;;;16.60;99.90;;;;;;5019764;28;20427;-79
2023/10/12 05:09:49;;;;;;;8.30;5.57;;;16.40;99.90;;;;;;5020006;28;20409;-79
2023/10/12 05:12:18;;;;;;;8.33;6.60;;;16.30;99.90;;;;;;5037463;28;20397;-79
2023/10/12 05:14:44;;;;;;;9.77;6.07;;;16.30;99.90;;;;;;5053982;28;20469;-79
2023/10/12 05:17:11;;;;;;;13.23;6.40;;;16.20;99.90;;;;;;5039473;28;20507;-79
2023/10/12 05:19:36;;;;;;;11.00;6.77;;;16.20;99.90;;;;;;5057406;28;20454;-79
2023/10/12 05:22:02;;;;;;;12.00;6.40;;;16.10;99.90;;;;;;5039829;28;20733;-79
2023/10/12 05:24:28;;;;;;;15.07;6.80;;;16.10;99.90;;;;;;5022903;28;20216;-79
2023/10/12 05:29:38;;;;;;;8.43;6.47;;;16.00;99.90;;;;;;5028257;28;20760;-79
2023/10/12 05:32:05;;;;;;;12.83;6.40;;;16.00;99.90;;;;;;5057195;28;20415;-79
2023/10/12 05:37:37;;;;;;;12.50;6.60;;;15.90;99.90;;;;;;5057037;28;20394;-79
2023/10/12 05:39:59;;;;;;;8.77;7.07;;;15.90;99.90;;;;;;5034673;28;20468;-79
2023/10/12 05:42:25;;;;;;;8.00;6.10;;;15.90;99.90;;;;;;5019588;28;20730;-79
2023/10/12 05:44:53;;;;;;;9.67;6.20;;;15.90;99.90;;;;;;5019365;28;20442;-79
2023/10/12 05:47:31;;;;;;;13.57;7.47;;;15.90;99.90;;;;;;5003371;28;20269;-79
2023/10/12 05:49:59;;;;;;;10.47;6.90;;;15.90;99.90;;;;;;5000977;28;20431;-79
2023/10/12 05:52:25;;;;;;;10.53;6.53;;;15.90;99.90;;;;;;5038927;28;20770;-79
2023/10/12 05:54:57;;;;;;;12.00;7.40;;;15.80;99.90;;;;;;5056784;28;20459;-79
2023/10/12 05:57:25;;;;;;;14.20;7.57;;;15.80;99.90;;;;;;5029128;28;20468;-79
2023/10/12 05:59:51;;;;;;;9.93;7.53;;;15.80;99.90;;;;;;5002767;28;20411;-79
2023/10/12 06:02:17;;;;;;;12.70;7.30;;;15.80;99.90;;;;;;5018811;28;20441;-79
2023/10/12 06:04:44;;;;;;;16.50;8.00;;;15.80;99.90;;;;;;5017626;28;20938;-79
2023/10/12 06:07:10;;;;;;;12.40;7.20;;;15.80;99.90;;;;;;5036604;28;20441;-79
2023/10/12 06:09:37;;;;;;;10.20;7.27;;;15.80;99.90;;;;;;5036346;28;20505;-80
2023/10/12 06:12:06;;;;;;;15.47;7.60;;;15.70;99.90;;;;;;5036078;28;20766;-80
2023/10/12 06:14:37;;;;;;;12.87;7.40;;;15.70;99.90;;;;;;5018406;28;20407;-80
2023/10/12 06:17:03;;;;;;;10.57;7.20;;;15.60;99.90;;;;;;5036062;28;20384;-80
2023/10/12 06:19:36;;;;;;;21.63;7.70;;;15.60;99.90;;;;;;5018229;28;20396;-81
2023/10/12 06:24:53;;;;;;;11.13;7.83;;;15.60;99.90;;;;;;5035090;28;20445;-81
2023/10/12 06:29:45;;;;;;;12.63;8.70;;;15.50;99.90;;;;;;5036245;28;20409;-81
2023/10/12 06:32:17;;;;;;;11.97;8.13;;;15.50;99.90;;;;;;5017782;28;20206;-81
2023/10/12 06:35:13;;;;;;;13.20;8.63;;;15.50;99.90;;;;;;5021302;28;20431;-81
2023/10/12 06:45:47;;;;;;;10.30;9.30;;;15.50;99.90;;;;;;5055149;28;20402;-81
2023/10/12 06:48:33;;;;;;;13.77;9.37;;;15.50;99.90;;;;;;5037337;28;20434;-81
2023/10/12 06:51:03;;;;;;;11.57;8.53;;;15.50;99.90;;;;;;5037687;28;20823;-81
2023/10/12 06:53:34;;;;;;;16.97;9.07;;;15.40;99.90;;;;;;5055550;28;20400;-81
2023/10/12 06:56:15;;;;;;;13.17;9.87;;;15.50;99.90;;;;;;5037721;28;20567;-81
2023/10/12 06:58:46;;;;;;;14.80;9.67;;;15.40;99.90;;;;;;5039326;28;20379;-81
2023/10/12 07:01:18;;;;;;;14.97;10.77;;;15.40;99.90;;;;;;5037796;28;20420;-81
2023/10/12 07:03:49;;;;;;;19.33;9.80;;;15.40;99.90;;;;;;5055621;28;20418;-81
2023/10/12 07:06:15;;;;;;;12.30;9.53;;;15.40;99.90;;;;;;5037003;28;20404;-81
2023/10/12 07:08:42;;;;;;;14.50;9.73;;;15.40;99.90;;;;;;5054917;28;20424;-81
2023/10/12 07:11:14;;;;;;;16.50;9.80;;;15.40;99.90;;;;;;5021206;28;20419;-81
2023/10/12 07:13:41;;;;;;;11.50;9.60;;;15.40;99.90;;;;;;5037065;28;20465;-81
2023/10/12 07:16:10;;;;;;;10.77;8.67;;;15.50;99.90;;;;;;5020740;28;20478;-81
2023/10/12 07:18:42;;;;;;;14.93;8.57;;;15.50;99.90;;;;;;5053780;28;20918;-82
2023/10/12 07:21:20;;;;;;;12.20;9.83;;;15.50;99.90;;;;;;5055299;28;20363;-81
2023/10/12 07:23:52;;;;;;;12.83;8.50;;;15.50;99.90;;;;;;5021778;28;20455;-81
2023/10/12 07:26:18;;;;;;;11.70;9.23;;;15.60;99.90;;;;;;5037372;28;20594;-80
2023/10/12 07:28:49;;;;;;;13.60;8.80;;;15.60;99.90;;;;;;5036970;28;20423;-81
2023/10/12 07:39:22;;;;;;;11.90;8.73;;;15.60;99.90;;;;;;5009913;28;20527;-81
2023/10/12 07:41:57;;;;;;;11.83;8.47;;;15.50;99.90;;;;;;5020330;28;20431;-81
2023/10/12 07:45:05;;;;;;;11.50;8.43;;;15.50;99.90;;;;;;5036462;28;20426;-81
2023/10/12 07:47:18;;;;;;;10.97;8.70;;;15.50;99.90;;;;;;5050275;28;20911;-81
2023/10/12 07:49:49;;;;;;;13.80;7.87;;;15.60;99.90;;;;;;5036413;28;20420;-81
2023/10/12 07:55:04;;;;;;;15.33;9.17;;;15.60;99.90;;;;;;5054258;28;20765;-81
2023/10/12 07:57:30;;;;;;;17.03;8.57;;;15.60;99.90;;;;;;5054437;28;20410;-81
2023/10/12 08:11:18;;;;;;;16.73;9.20;;;;;;;;;;5054302;28;20416;-81
2023/10/12 08:15:55;;;;;;;13.30;8.20;;;15.60;99.90;;;;;;5054261;28;20796;-81
2023/10/12 08:21:32;;;;;;;11.60;8.10;;;15.70;99.90;;;;;;5054628;28;20889;-81
2023/10/12 08:24:05;;;;;;;14.30;9.40;;;;;;;;;;5054187;28;20497;-81
2023/10/12 08:26:35;;;;;;;18.97;8.77;;;15.70;99.90;;;;;;5054645;28;20379;-81
2023/10/12 08:37:18;;;;;;;11.50;7.87;;;16.00;99.90;;;;;;5039743;28;20938;-81
2023/10/12 08:40:07;;;;;;;12.70;8.70;;;16.00;99.90;;;;;;5025689;28;20416;-81
2023/10/12 08:45:07;;;;;;;9.93;7.97;;;16.00;99.90;;;;;;5039673;28;20438;-81
2023/10/12 08:52:31;;;;;;;10.07;8.07;;;16.20;99.90;;;;;;5057630;28;20501;-81
2023/10/12 08:55:11;;;;;;;17.43;8.50;;;16.20;99.90;;;;;;5037470;28;20368;-81
2023/10/12 08:57:55;;;;;;;8.63;7.40;;;16.30;99.90;;;;;;5019624;28;20417;-81
2023/10/12 09:06:00;;;;;;;13.20;7.30;;;16.40;99.90;;;;;;4993416;28;20887;-81
2023/10/12 09:11:13;;;;;;;9.90;7.97;;;16.50;99.90;;;;;;5003894;28;20174;-81
2023/10/12 09:13:45;;;;;;;10.70;7.93;;;16.50;99.90;;;;;;5005482;28;20431;-81
2023/10/12 09:16:14;;;;;;;10.60;8.03;;;16.60;99.90;;;;;;5029064;28;20895;-80
2023/10/12 09:18:44;;;;;;;10.00;7.57;;;16.70;99.90;;;;;;5037257;28;20503;-80
2023/10/12 09:24:06;;;;;;;9.73;6.70;;;16.60;99.90;;;;;;5036642;28;20435;-81
2023/10/12 09:26:34;;;;;;;9.57;7.40;;;16.90;99.90;;;;;;5019224;28;20428;-81
2023/10/12 09:29:08;;;;;;;9.60;7.60;;;16.90;99.90;;;;;;5019230;28;20409;-81
2023/10/12 09:36:43;;;;;;;7.90;7.10;;;17.30;99.90;;;;;;5020063;28;20734;-81
2023/10/12 09:39:13;;;;;;;10.83;7.30;;;17.50;99.90;;;;;;5035658;28;20456;-81
2023/10/12 09:41:40;;;;;;;10.97;7.70;;;17.90;99.90;;;;;;5003012;28;20399;-81
2023/10/12 09:44:07;;;;;;;13.90;7.10;;;17.60;99.90;;;;;;5029648;28;20475;-80
2023/10/12 09:46:33;;;;;;;14.17;7.93;;;17.90;99.90;;;;;;5056896;28;20818;-81
2023/10/12 09:49:46;;;;;;;10.83;6.20;;;18.00;99.90;;;;;;5056224;28;20412;-81
2023/10/12 09:51:59;;;;;;;8.63;6.43;;;18.10;99.90;;;;;;5047802;28;20424;-80
2023/10/12 09:54:45;;;;;;;11.73;6.23;;;18.40;99.90;;;;;;5056429;28;20404;-81
2023/10/12 09:57:27;;;;;;;9.10;6.33;;;18.50;99.90;;;;;;5038127;28;20424;-81
2023/10/12 09:59:59;;;;;;;7.60;5.60;;;18.60;99.90;;;;;;5055707;28;20415;-81
2023/10/12 10:02:28;;;;;;;9.57;5.93;;;;;;;;;;5038018;28;20424;-81
2023/10/12 10:08:03;;;;;;;7.80;6.27;;;19.00;99.90;;;;;;5026363;28;20406;-81
2023/10/12 10:10:34;;;;;;;10.20;6.33;;;18.50;99.90;;;;;;5056040;28;20418;-81
2023/10/12 10:13:08;;;;;;;8.30;6.10;;;19.10;99.90;;;;;;5037603;28;20401;-81
2023/10/12 10:15:55;;;;;;;10.60;6.43;;;19.70;99.90;;;;;;5055623;28;20395;-81
2023/10/12 10:18:25;;;;;;;9.93;5.67;;;19.30;99.90;;;;;;5037830;28;20387;-81
2023/10/12 10:20:57;;;;;;;11.50;5.27;;;19.50;99.90;;;;;;5013999;28;20438;-81
2023/10/12 10:23:23;;;;;;;8.73;5.73;;;;;;;;;;5018167;28;20456;-81
2023/10/12 10:25:56;;;;;;;9.97;6.00;;;19.50;99.90;;;;;;5017927;28;20391;-81
2023/10/12 10:28:34;;;;;;;8.10;5.10;;;19.60;99.90;;;;;;5045893;28;20790;-81
2023/10/12 10:31:00;;;;;;;11.20;6.10;;;;;;;;;;5037536;28;20522;-81
2023/10/12 10:33:28;;;;;;;6.63;5.13;;;20.20;99.90;;;;;;5037204;28;20406;-81
2023/10/12 10:36:12;;;;;;;7.90;6.10;;;20.10;99.90;;;;;;5036873;28;20437;-81
2023/10/12 10:38:58;;;;;;;9.00;5.00;;;20.00;99.90;;;;;;5021616;28;20456;-80
2023/10/12 10:44:03;;;;;;;10.23;6.10;;;20.20;99.90;;;;;;5054598;28;20459;-81
2023/10/12 10:46:29;;;;;;;8.90;5.30;;;20.10;99.90;;;;;;5037239;28;20408;-81
2023/10/12 10:48:55;;;;;;;7.57;5.47;;;20.20;99.90;;;;;;5037133;28;20429;-81
2023/10/12 10:51:32;;;;;;;8.43;5.50;;;20.20;99.90;;;;;;5036378;28;20181;-81
2023/10/12 10:53:58;;;;;;;9.90;5.43;;;20.40;99.90;;;;;;5038420;28;20408;-81
2023/10/12 10:56:35;;;;;;;10.73;5.50;;;20.20;99.90;;;;;;5036773;28;20399;-80
2023/10/12 10:59:07;;;;;;;7.80;5.70;;;20.00;99.90;;;;;;5053173;28;20578;-81
2023/10/12 11:01:33;;;;;;;8.77;4.83;;;20.00;99.90;;;;;;5054478;28;20411;-80
2023/10/12 11:04:00;;;;;;;14.97;5.40;;;20.10;99.90;;;;;;5036191;28;20547;-79
2023/10/12 11:06:29;;;;;;;8.40;5.67;;;20.20;99.90;;;;;;5054375;28;20692;-80
2023/10/12 11:09:08;;;;;;;8.17;5.37;;;;;;;;;;5036722;28;20432;-81
2023/10/12 11:11:37;;;;;;;7.83;5.50;;;20.30;99.90;;;;;;5036351;28;20498;-81
2023/10/12 11:14:05;;;;;;;9.90;5.03;;;20.30;99.90;;;;;;5020004;28;20911;-80
2023/10/12 11:16:32;;;;;;;9.10;3.90;;;20.30;99.90;;;;;;5054800;28;20750;-80
2023/10/12 11:18:59;;;;;;;9.27;4.73;;;20.10;99.90;;;;;;5036180;28;20531;-81
2023/10/12 11:21:25;;;;;;;13.03;5.47;;;20.10;99.90;;;;;;5001838;28;20785;-81
2023/10/12 11:23:57;;;;;;;11.87;5.93;;;20.20;99.90;;;;;;5036410;28;20941;-80
2023/10/12 11:26:22;;;;;;;11.63;5.57;;;20.40;99.90;;;;;;5036779;28;20455;-80
2023/10/12 11:29:06;;;;;;;7.07;5.20;;;20.50;99.90;;;;;;5056500;28;20403;-81
2023/10/12 11:31:36;;;;;;;6.53;4.30;;;20.50;99.90;;;;;;5037322;28;20527;-81
2023/10/12 11:34:07;;;;;;;11.87;5.70;;;20.50;99.90;;;;;;5036319;28;20761;-80
2023/10/12 11:36:35;;;;;;;12.27;5.50;;;20.50;99.90;;;;;;5037161;28;20383;-81
2023/10/12 11:39:04;;;;;;;7.77;4.90;;;20.60;99.90;;;;;;5054262;28;20986;-81
2023/10/12 11:41:30;;;;;;;8.60;4.80;;;;;;;;;;5054674;28;20405;-81
2023/10/12 11:44:05;;;;;;;9.27;5.30;;;20.70;99.90;;;;;;5053983;28;20813;-81
2023/10/12 11:46:43;;;;;;;8.00;5.10;;;20.90;99.90;;;;;;5021102;28;20890;-81
2023/10/12 11:49:12;;;;;;;8.43;4.60;;;20.80;99.90;;;;;;5054086;28;20382;-81
2023/10/12 11:51:42;;;;;;;12.13;4.80;;;;;;;;;;5038471;28;20532;-80
2023/10/12 11:54:19;;;;;;;8.63;4.33;;;21.40;99.90;;;;;;5034229;28;20401;-80
2023/10/12 11:56:45;;;;;;;9.20;4.77;;;20.90;99.90;;;;;;5016417;28;20427;-81
2023/10/12 11:59:22;;;;;;;7.33;4.17;;;21.30;99.90;;;;;;5015843;28;20400;-81
2023/10/12 12:01:54;;;;;;;8.27;4.40;;;21.30;99.90;;;;;;5018431;28;20411;-81
2023/10/12 12:04:30;;;;;;;7.40;4.47;;;21.40;99.90;;;;;;5004832;28;20443;-81
2023/10/12 12:06:56;;;;;;;7.30;4.17;;;21.40;99.90;;;;;;5037830;28;20519;-82
2023/10/12 12:09:22;;;;;;;12.70;5.67;;;21.40;99.90;;;;;;5038795;28;20547;-81
2023/10/12 12:11:48;;;;;;;6.40;4.03;;;21.20;99.90;;;;;;5020553;28;20174;-81
2023/10/12 12:14:14;;;;;;;11.13;4.80;;;21.00;99.90;;;;;;5020085;28;20873;-81
2023/10/12 12:16:40;;;;;;;11.43;5.00;;;21.20;99.90;;;;;;5024002;28;20209;-81
2023/10/12 12:19:05;;;;;;;9.23;4.40;;;20.90;99.90;;;;;;5020593;28;20689;-81
2023/10/12 12:21:33;;;;;;;7.40;3.83;;;20.50;99.90;;;;;;5037790;28;20253;-80
2023/10/12 12:24:03;;;;;;;7.23;4.10;;;20.10;99.90;;;;;;5019554;28;20605;-81
2023/10/12 12:26:33;;;;;;;7.33;4.00;;;20.30;99.90;;;;;;5003963;28;20409;-81
2023/10/12 12:29:09;;;;;;;6.70;4.20;;;20.10;99.90;;;;;;5004187;28;20867;-81
2023/10/12 12:31:36;;;;;;;7.27;3.90;;;20.00;99.90;;;;;;5021210;28;20408;-81
2023/10/12 12:34:06;;;;;;;9.47;4.57;;;20.00;99.90;;;;;;5037218;28;20403;-81
2023/10/12 12:36:31;;;;;;;11.30;5.47;;;20.00;99.90;;;;;;5003691;28;20403;-81
2023/10/12 12:39:00;;;;;;;10.03;4.80;;;;;;;;;;5018962;28;20808;-81
2023/10/12 12:41:26;;;;;;;7.70;4.00;;;;;;;;;;5019695;28;20182;-80
2023/10/12 12:43:52;;;;;;;6.40;4.40;;;20.00;99.90;;;;;;5019445;28;20468;-81
2023/10/12 12:46:19;;;;;;;11.17;4.50;;;19.80;99.90;;;;;;5037709;28;20390;-81
2023/10/12 12:48:48;;;;;;;7.33;4.63;;;19.60;99.90;;;;;;5025662;28;20456;-80
2023/10/12 12:51:18;;;;;;;6.60;4.57;;;19.60;99.90;;;;;;5042505;28;20856;-81
2023/10/12 12:53:48;;;;;;;8.07;4.37;;;19.40;99.90;;;;;;5019417;28;20416;-80
2023/10/12 12:56:15;;;;;;;6.47;4.20;;;19.40;99.90;;;;;;5003185;28;20396;-81
2023/10/12 12:58:48;;;;;;;7.50;5.17;;;19.40;99.90;;;;;;5037201;28;20764;-80
2023/10/12 13:01:18;;;;;;;9.80;4.00;;;;;;;;;;5020265;28;20794;-80
2023/10/12 13:03:45;;;;;;;6.93;4.50;;;19.30;99.90;;;;;;5037316;28;20438;-80
2023/10/12 13:06:12;;;;;;;8.63;4.60;;;19.20;99.90;;;;;;5035608;28;20428;-81
2023/10/12 13:08:38;;;;;;;8.00;4.20;;;19.30;99.90;;;;;;5019310;28;20509;-80
2023/10/12 13:11:09;;;;;;;10.87;5.23;;;19.20;99.90;;;;;;5039725;28;20462;-81
2023/10/12 13:13:35;;;;;;;9.63;4.20;;;19.10;99.90;;;;;;5022959;28;20505;-80
2023/10/12 13:16:05;;;;;;;7.40;5.20;;;;;;;;;;5038845;28;20911;-80
2023/10/12 13:18:32;;;;;;;7.63;4.80;;;18.80;99.90;;;;;;5056692;28;20465;-79
2023/10/12 13:20:59;;;;;;;7.60;4.87;;;18.60;99.90;;;;;;5023241;28;20760;-80
2023/10/12 13:23:25;;;;;;;9.90;4.90;;;;;;;;;;5056786;28;20467;-79
2023/10/12 13:25:51;;;;;;;8.50;5.00;;;;;;;;;;5038987;28;20435;-79
2023/10/12 13:28:16;;;;;;;7.50;5.10;;;18.00;99.90;;;;;;5056385;28;20726;-80
2023/10/12 13:30:43;;;;;;;6.70;4.27;;;18.10;99.90;;;;;;5039185;28;20448;-79
2023/10/12 13:33:11;;;;;;;10.13;5.30;;;18.00;99.90;;;;;;5022255;28;20245;-80
2023/10/12 13:35:45;;;;;;;9.67;5.60;;;18.00;99.90;;;;;;5038738;28;20398;-80
2023/10/12 13:38:13;;;;;;;7.80;5.50;;;18.00;99.90;;;;;;5038553;28;20509;-80
2023/10/12 13:40:39;;;;;;;6.03;4.70;;;18.00;99.90;;;;;;5022329;28;20416;-80
2023/10/12 13:43:26;;;;;;;5.40;4.30;;;18.00;99.90;;;;;;5038850;28;20406;-80
2023/10/12 13:45:55;;;;;;;9.40;4.40;;;17.90;99.90;;;;;;5024566;28;20406;-80
2023/10/12 13:48:27;;;;;;;6.57;4.47;;;18.00;99.90;;;;;;5022626;28;20394;-80
2023/10/12 13:50:59;;;;;;;11.17;4.83;;;18.00;99.90;;;;;;5056587;28;20385;-80
2023/10/12 13:53:26;;;;;;;11.87;5.60;;;18.00;99.90;;;;;;5056382;28;20393;-80
2023/10/12 13:55:53;;;;;;;9.57;4.80;;;18.10;99.90;;;;;;5038587;28;20411;-80
2023/10/12 13:58:24;;;;;;;9.40;5.37;;;18.00;99.90;;;;;;5021436;28;20905;-80
2023/10/12 14:00:51;;;;;;;6.93;5.30;;;18.10;99.90;;;;;;5039235;28;20370;-80
2023/10/12 14:03:17;;;;;;;10.33;5.33;;;18.00;99.90;;;;;;5055804;28;20448;-80
2023/10/12 14:05:44;;;;;;;7.00;3.97;;;18.10;99.90;;;;;;5038394;28;20446;-81
2023/10/12 14:08:10;;;;;;;9.63;5.40;;;18.00;99.90;;;;;;5056448;28;20423;-81
2023/10/12 14:10:42;;;;;;;6.43;3.97;;;18.00;99.90;;;;;;5055443;28;20428;-81
2023/10/12 14:13:09;;;;;;;8.93;4.50;;;;;;;;;;5038079;28;20446;-81
2023/10/12 14:15:38;;;;;;;10.63;5.07;;;18.10;99.90;;;;;;5037529;28;20396;-80
2023/10/12 14:18:11;;;;;;;9.43;4.10;;;;;;;;;;5037574;28;20394;-80
2023/10/12 14:20:38;;;;;;;11.50;4.53;;;17.90;99.90;;;;;;5038028;28;20393;-80
2023/10/12 14:23:07;;;;;;;8.20;4.80;;;;;;;;;;5020749;28;20443;-81
2023/10/12 14:25:43;;;;;;;5.77;4.70;;;17.90;99.90;;;;;;5055200;28;20434;-81
2023/10/12 14:28:10;;;;;;;7.17;4.13;;;17.90;99.90;;;;;;5055789;28;20453;-81
2023/10/12 14:30:39;;;;;;;9.37;4.77;;;17.90;99.90;;;;;;5037564;28;20435;-80
2023/10/12 14:33:06;;;;;;;7.27;4.87;;;17.80;99.90;;;;;;5055144;28;20454;-81
2023/10/12 14:35:39;;;;;;;6.80;4.17;;;;;;;;;;5036793;28;20399;-80
2023/10/12 14:38:08;;;;;;;7.80;5.17;;;17.90;99.90;;;;;;5054767;28;21005;-81
2023/10/12 14:40:40;;;;;;;7.07;5.00;;;17.70;99.90;;;;;;5021194;28;20394;-80
2023/10/12 14:43:10;;;;;;;7.90;4.93;;;;;;;;;;5036949;28;20919;-80
2023/10/12 14:45:37;;;;;;;7.20;5.10;;;;;;;;;;5055279;28;20409;-80
2023/10/12 14:48:09;;;;;;;6.40;5.10;;;17.60;99.90;;;;;;5054753;28;20396;-81
2023/10/12 14:50:38;;;;;;;7.03;5.50;;;17.70;99.90;;;;;;5055268;28;20413;-80
2023/10/12 14:53:05;;;;;;;23.07;6.03;;;17.70;99.90;;;;;;5055205;28;20379;-79
2023/10/12 14:55:31;;;;;;;14.00;6.40;;;17.60;99.90;;;;;;5054934;28;20457;-79
2023/10/12 14:57:57;;;;;;;10.00;5.97;;;17.60;99.90;;;;;;5020667;28;20752;-79
2023/10/12 15:00:23;;;;;;;9.03;6.00;;;17.60;99.90;;;;;;5054620;28;20386;-79
2023/10/12 15:02:52;;;;;;;13.77;5.50;;;17.60;99.90;;;;;;5020127;28;20178;-79
2023/10/12 15:05:25;;;;;;;9.50;5.07;;;17.50;99.90;;;;;;5054751;28;20209;-79
2023/10/12 15:07:52;;;;;;;7.80;5.03;;;17.50;99.90;;;;;;5054919;28;20390;-79
2023/10/12 15:10:18;;;;;;;6.67;4.77;;;17.60;99.90;;;;;;5037027;28;20419;-80
2023/10/12 15:12:48;;;;;;;9.17;5.00;;;18.30;99.90;;;;;;5020649;28;20444;-79
2023/10/12 15:15:25;;;;;;;8.53;4.97;;;17.50;99.90;;;;;;5037028;28;20399;-79
2023/10/12 15:17:52;;;;;;;10.00;5.07;;;;;;;;;;5054570;28;20375;-80
2023/10/12 15:20:18;;;;;;;7.53;4.67;;;17.50;99.90;;;;;;5036528;28;20412;-79
2023/10/12 15:22:46;;;;;;;9.67;4.77;;;17.50;99.90;;;;;;5036741;28;20774;-79
2023/10/12 15:25:13;;;;;;;7.63;4.80;;;17.50;99.90;;;;;;5036861;28;20434;-79
2023/10/12 15:27:40;;;;;;;10.40;4.90;;;17.40;99.90;;;;;;5038070;28;20431;-79
2023/10/12 15:30:10;;;;;;;5.83;4.93;;;16.20;99.90;;;;;;5020395;28;20413;-80
2023/10/12 15:32:41;;;;;;;10.60;5.03;;;17.40;99.90;;;;;;5054435;28;20420;-79
2023/10/12 15:35:11;;;;;;;7.50;4.73;;;;;;;;;;5054831;28;20443;-80
2023/10/12 15:37:45;;;;;;;13.30;5.03;;;17.40;99.90;;;;;;5053958;28;20456;-79
2023/10/12 15:40:17;;;;;;;8.33;4.57;;;17.40;99.90;;;;;;5035579;28;20428;-80